createdAt,value
2017-08-08T00:00:01.576Z,92.30
2017-08-08T00:02:35.805Z,92.40
2017-08-08T00:05:09.943Z,92.30
2017-08-08T00:07:44.073Z,92.30
2017-08-08T00:10:18.320Z,92.40
2017-08-08T00:12:52.440Z,92.40
2017-08-08T00:15:26.793Z,92.50
2017-08-08T00:18:00.896Z,92.60
2017-08-08T00:20:35.160Z,92.60
2017-08-08T00:23:09.397Z,92.80
2017-08-08T00:25:43.992Z,92.80
2017-08-08T00:28:18.176Z,92.80
2017-08-08T00:30:52.428Z,93.00
2017-08-08T00:33:26.757Z,93.20
2017-08-08T00:35:55.716Z,93.20
2017-08-08T00:38:24.905Z,93.30
2017-08-08T00:40:53.637Z,93.50
2017-08-08T00:43:21.913Z,93.60
2017-08-08T00:45:50.667Z,93.70
2017-08-08T00:48:19.024Z,93.80
2017-08-08T00:50:52.807Z,93.90
2017-08-08T00:53:21.620Z,94.00
2017-08-08T00:55:55.085Z,94.00
2017-08-08T00:58:23.381Z,94.00
2017-08-08T01:00:52.452Z,94.00
2017-08-08T01:03:21.711Z,94.00
2017-08-08T01:05:50.582Z,94.20
2017-08-08T01:08:19.365Z,94.30
2017-08-08T01:10:47.949Z,94.30
2017-08-08T01:13:16.192Z,94.40
2017-08-08T01:15:45.629Z,94.40
2017-08-08T01:18:13.892Z,94.40
2017-08-08T01:20:42.253Z,94.30
2017-08-08T01:23:10.784Z,94.50
2017-08-08T01:25:39.464Z,94.80
2017-08-08T01:28:08.090Z,94.90
2017-08-08T01:30:36.394Z,95.00
2017-08-08T01:33:06.240Z,95.10
2017-08-08T01:35:36.225Z,95.30
2017-08-08T01:38:04.563Z,95.30
2017-08-08T01:40:32.897Z,95.50
2017-08-08T01:43:01.763Z,95.60
2017-08-08T01:45:30.018Z,95.50
2017-08-08T01:47:58.300Z,95.60
2017-08-08T01:50:27.401Z,95.50
2017-08-08T01:52:56.337Z,95.50
2017-08-08T01:55:25.187Z,95.50
2017-08-08T01:57:53.833Z,95.60
2017-08-08T02:00:28.356Z,95.60
2017-08-08T02:02:57.055Z,95.60
2017-08-08T02:05:26.108Z,96.00
2017-08-08T02:07:54.397Z,96.00
2017-08-08T02:10:22.764Z,96.10
2017-08-08T02:12:52.143Z,96.10
2017-08-08T02:15:20.710Z,96.40
2017-08-08T02:17:48.978Z,96.50
2017-08-08T02:20:18.129Z,96.70
2017-08-08T02:22:47.155Z,96.70
2017-08-08T02:25:15.918Z,97.00
2017-08-08T02:27:44.616Z,97.10
2017-08-08T02:30:12.976Z,97.20
2017-08-08T02:32:41.408Z,97.00
2017-08-08T02:35:10.583Z,96.70
2017-08-08T02:37:39.233Z,97.10
2017-08-08T02:40:08.529Z,97.40
2017-08-08T02:42:37.277Z,97.90
2017-08-08T02:45:06.906Z,98.00
2017-08-08T02:47:35.173Z,98.10
2017-08-08T02:50:03.870Z,98.20
2017-08-08T02:52:32.708Z,98.30
2017-08-08T02:55:01.321Z,98.30
2017-08-08T02:57:29.961Z,98.40
2017-08-08T02:59:58.889Z,98.50
2017-08-08T03:02:27.192Z,98.40
2017-08-08T03:04:55.806Z,98.30
2017-08-08T03:07:24.833Z,98.30
2017-08-08T03:09:53.231Z,98.10
2017-08-08T03:12:21.803Z,98.30
2017-08-08T03:14:50.645Z,98.40
2017-08-08T03:17:19.721Z,98.40
2017-08-08T03:19:47.979Z,98.70
2017-08-08T03:22:16.252Z,99.20
2017-08-08T03:24:44.777Z,99.50
2017-08-08T03:27:13.285Z,99.50
2017-08-08T03:29:47.644Z,99.40
2017-08-08T03:32:20.675Z,99.50
2017-08-08T03:34:55.570Z,99.30
2017-08-08T03:37:29.911Z,99.50
2017-08-08T03:39:58.297Z,99.50
2017-08-08T03:42:26.622Z,99.50
2017-08-08T03:44:55.068Z,99.50
2017-08-08T03:47:23.464Z,99.50
2017-08-08T03:49:51.946Z,99.50
2017-08-08T03:52:21.214Z,99.10
2017-08-08T03:54:50.035Z,98.90
2017-08-08T03:57:18.623Z,99.40
2017-08-08T03:59:47.295Z,99.50
2017-08-08T04:02:16.492Z,99.50
2017-08-08T04:04:45.612Z,99.50
2017-08-08T04:07:14.405Z,99.50
2017-08-08T04:09:43.039Z,99.50
2017-08-08T04:12:11.943Z,99.50
2017-08-08T04:14:46.093Z,99.50
2017-08-08T04:17:14.808Z,99.50
2017-08-08T04:19:43.609Z,99.50
2017-08-08T04:22:12.976Z,99.50
2017-08-08T04:24:41.456Z,99.50
2017-08-08T04:27:10.158Z,99.50
2017-08-08T04:29:38.968Z,99.50
2017-08-08T04:32:07.679Z,99.50
2017-08-08T04:34:37.595Z,99.50
2017-08-08T04:37:07.872Z,99.50
2017-08-08T04:39:36.472Z,99.50
2017-08-08T04:42:04.740Z,99.50
2017-08-08T04:44:33.765Z,99.50
2017-08-08T04:47:03.320Z,99.50
2017-08-08T04:49:31.591Z,99.50
2017-08-08T04:52:00.152Z,99.30
2017-08-08T04:54:29.106Z,98.50
2017-08-08T04:56:57.588Z,98.20
2017-08-08T04:59:25.852Z,98.10
2017-08-08T05:01:54.295Z,98.00
2017-08-08T05:04:23.779Z,98.10
2017-08-08T05:06:52.155Z,97.90
2017-08-08T05:09:20.455Z,97.70
2017-08-08T05:11:48.835Z,97.20
2017-08-08T05:14:17.457Z,96.80
2017-08-08T05:16:46.833Z,96.70
2017-08-08T05:19:17.456Z,96.20
2017-08-08T05:21:45.797Z,95.90
2017-08-08T05:24:14.071Z,95.80
2017-08-08T05:26:43.131Z,95.50
2017-08-08T05:29:11.967Z,94.90
2017-08-08T05:31:40.724Z,94.40
2017-08-08T05:34:10.501Z,94.20
2017-08-08T05:36:39.308Z,94.00
2017-08-08T05:39:09.182Z,94.00
2017-08-08T05:41:37.782Z,93.70
2017-08-08T05:44:06.731Z,93.40
2017-08-08T05:46:35.063Z,93.60
2017-08-08T05:49:04.236Z,93.80
2017-08-08T05:51:33.167Z,93.60
2017-08-08T05:54:01.807Z,93.60
2017-08-08T05:56:30.075Z,93.10
2017-08-08T05:59:04.655Z,92.80
2017-08-08T06:01:38.813Z,92.80
2017-08-08T06:04:07.390Z,92.20
2017-08-08T06:06:37.274Z,92.20
2017-08-08T06:09:06.308Z,91.70
2017-08-08T06:11:34.628Z,90.90
2017-08-08T06:14:03.227Z,90.60
2017-08-08T06:16:31.740Z,90.20
2017-08-08T06:19:00.734Z,89.20
2017-08-08T06:21:29.132Z,88.60
2017-08-08T06:23:58.790Z,87.90
2017-08-08T06:26:27.478Z,87.60
2017-08-08T06:28:56.816Z,86.80
2017-08-08T06:31:31.196Z,86.60
2017-08-08T06:33:59.905Z,86.00
2017-08-08T06:36:29.373Z,85.40
2017-08-08T06:38:58.132Z,84.70
2017-08-08T06:41:26.588Z,84.20
2017-08-08T06:43:56.337Z,83.90
2017-08-08T06:46:24.829Z,84.30
2017-08-08T06:48:54.406Z,84.20
2017-08-08T06:51:23.703Z,84.20
2017-08-08T06:53:57.965Z,83.30
2017-08-08T06:59:10.410Z,81.90
2017-08-08T07:01:45.548Z,81.60
2017-08-08T07:06:58.718Z,81.10
2017-08-08T07:09:34.773Z,80.70
2017-08-08T07:12:08.972Z,80.90
2017-08-08T07:14:43.706Z,80.40
2017-08-08T07:19:57.037Z,79.80
2017-08-08T07:22:31.966Z,79.90
2017-08-08T07:30:23.544Z,77.90
2017-08-08T07:32:59.482Z,77.50
2017-08-08T07:35:35.906Z,78.10
2017-08-08T07:38:12.085Z,76.20
2017-08-08T07:40:46.272Z,76.40
2017-08-08T07:43:20.653Z,76.10
2017-08-08T07:48:33.432Z,76.50
2017-08-08T07:53:48.494Z,75.60
2017-08-08T07:56:22.996Z,75.10
2017-08-08T07:58:58.057Z,74.80
2017-08-08T08:04:16.760Z,74.10
2017-08-08T08:09:29.485Z,73.00
2017-08-08T08:12:05.911Z,73.20
2017-08-08T08:14:43.768Z,73.10
2017-08-08T08:19:56.382Z,73.60
2017-08-08T08:22:31.709Z,73.00
2017-08-08T08:25:07.751Z,73.40
2017-08-08T08:27:42.456Z,73.50
2017-08-08T08:30:16.888Z,72.40
2017-08-08T08:32:51.495Z,71.00
2017-08-08T08:35:25.847Z,71.00
2017-08-08T08:38:00.560Z,70.70
2017-08-08T08:43:17.145Z,70.10
2017-08-08T08:48:29.968Z,71.40
2017-08-08T08:53:46.780Z,69.40
2017-08-08T08:59:00.241Z,68.00
2017-08-08T09:06:52.736Z,67.40
2017-08-08T09:14:45.591Z,66.80
2017-08-08T09:17:20.377Z,66.20
2017-08-08T09:22:34.046Z,65.60
2017-08-08T09:27:47.274Z,65.90
2017-08-08T09:30:22.480Z,65.40
2017-08-08T09:32:58.418Z,64.90
2017-08-08T09:35:35.571Z,65.70
2017-08-08T09:38:10.269Z,66.10
2017-08-08T09:46:03.762Z,63.20
2017-08-08T09:51:17.459Z,62.70
2017-08-08T09:53:52.718Z,62.90
2017-08-08T10:01:44.265Z,64.30
2017-08-08T10:04:20.508Z,63.90
2017-08-08T10:06:55.532Z,62.20
2017-08-08T10:12:11.271Z,61.90
2017-08-08T10:14:45.757Z,61.10
2017-08-08T10:17:20.018Z,61.60
2017-08-08T10:27:50.825Z,60.40
2017-08-08T10:35:42.027Z,58.30
2017-08-08T10:40:58.530Z,62.70
2017-08-08T10:43:36.741Z,63.30
2017-08-08T10:46:11.711Z,62.00
2017-08-08T10:48:46.927Z,61.10
2017-08-08T10:51:23.039Z,61.00
2017-08-08T10:53:58.675Z,60.30
2017-08-08T10:56:33.482Z,59.90
2017-08-08T11:01:46.368Z,60.30
2017-08-08T11:36:15.226Z,60.20
2017-08-08T11:46:45.375Z,58.10
2017-08-08T11:49:19.733Z,57.90
2017-08-08T11:51:54.344Z,57.50
2017-08-08T11:57:12.661Z,57.50
2017-08-08T12:02:26.515Z,58.20
2017-08-08T12:05:05.141Z,58.80
2017-08-08T12:23:47.666Z,65.60
2017-08-08T12:45:19.169Z,64.00
2017-08-08T12:55:54.196Z,63.50
2017-08-08T12:58:28.550Z,62.80
2017-08-08T13:03:42.147Z,63.00
2017-08-08T13:08:58.773Z,62.50
2017-08-08T13:11:34.208Z,61.30
2017-08-08T13:16:47.535Z,60.70
2017-08-08T13:19:25.440Z,60.90
2017-08-08T13:22:00.313Z,61.20
2017-08-08T13:29:52.477Z,64.70
2017-08-08T13:40:28.390Z,67.30
2017-08-08T14:01:39.443Z,66.20
2017-08-08T14:04:14.419Z,64.80
2017-08-08T14:06:48.900Z,64.80
2017-08-08T14:09:25.051Z,65.00
2017-08-08T14:11:59.378Z,65.10
2017-08-08T14:17:14.582Z,67.50
2017-08-08T14:22:28.150Z,67.40
2017-08-08T14:27:44.497Z,67.20
2017-08-08T14:30:19.432Z,67.20
2017-08-08T14:32:53.893Z,67.70
2017-08-08T14:38:06.744Z,68.40
2017-08-08T14:40:41.886Z,69.80
2017-08-08T14:45:58.276Z,70.90
2017-08-08T14:48:34.426Z,72.30
2017-08-08T14:51:14.926Z,73.20
2017-08-08T14:53:53.484Z,73.50
2017-08-08T14:59:06.787Z,73.40
2017-08-08T15:01:41.531Z,73.60
2017-08-08T15:04:15.882Z,74.20
2017-08-08T15:09:28.975Z,73.70
2017-08-08T15:12:04.892Z,73.20
2017-08-08T15:14:39.420Z,73.30
2017-08-08T15:17:14.230Z,72.80
2017-08-08T15:22:27.908Z,72.00
2017-08-08T15:25:02.364Z,71.50
2017-08-08T15:27:37.289Z,71.00
2017-08-08T15:30:11.651Z,71.10
2017-08-08T15:32:46.882Z,71.20
2017-08-08T15:35:21.433Z,70.80
2017-08-08T15:37:55.961Z,70.30
2017-08-08T15:45:47.834Z,70.40
2017-08-08T15:48:22.507Z,70.60
2017-08-08T15:50:59.470Z,71.10
2017-08-08T15:56:14.250Z,72.10
2017-08-08T16:01:31.938Z,72.10
2017-08-08T16:06:48.090Z,72.40
2017-08-08T16:12:01.790Z,73.60
2017-08-08T16:14:36.214Z,74.30
2017-08-08T16:17:12.205Z,74.40
2017-08-08T16:19:48.169Z,74.60
2017-08-08T16:25:03.238Z,74.90
2017-08-08T16:35:37.718Z,77.20
2017-08-08T17:36:29.840Z,95.30
2017-08-08T18:13:26.384Z,94.60
2017-08-08T18:15:55.176Z,95.00
2017-08-08T18:33:51.537Z,94.60
2017-08-08T18:38:52.625Z,93.60
2017-08-08T18:46:27.177Z,92.40
2017-08-08T18:56:36.887Z,91.60
2017-08-08T18:59:05.317Z,91.60
2017-08-08T19:01:33.717Z,92.20
2017-08-08T19:04:02.761Z,92.50
2017-08-08T19:06:34.692Z,92.30
2017-08-08T19:09:03.426Z,92.40
2017-08-08T19:14:06.710Z,92.30
2017-08-08T19:16:38.849Z,92.10
2017-08-08T19:21:40.673Z,91.70
2017-08-08T19:24:09.710Z,91.90
2017-08-08T19:26:39.732Z,91.80
2017-08-08T19:29:08.155Z,92.30
2017-08-08T19:44:32.159Z,99.50
2017-08-08T19:47:00.545Z,99.50
2017-08-08T19:52:01.554Z,99.50
2017-08-08T19:54:29.824Z,99.50
2017-08-08T19:56:58.189Z,99.50
2017-08-08T19:59:26.608Z,99.50
2017-08-08T20:04:31.870Z,99.50
2017-08-08T20:09:32.844Z,99.50
2017-08-08T20:12:01.565Z,99.50
2017-08-08T20:17:02.564Z,99.50
2017-08-08T20:19:34.414Z,99.50
2017-08-08T20:22:02.825Z,99.50
2017-08-08T20:24:31.145Z,99.50
2017-08-08T20:27:01.073Z,99.50
2017-08-08T20:29:30.245Z,99.50
2017-08-08T20:32:00.020Z,99.50
2017-08-08T20:37:01.009Z,99.50
2017-08-08T20:39:29.928Z,99.50
2017-08-08T20:44:31.730Z,99.50
2017-08-08T20:47:00.054Z,99.50
2017-08-08T20:49:29.168Z,99.50
2017-08-08T20:51:57.909Z,99.50
2017-08-08T20:54:27.170Z,99.50
2017-08-08T20:56:55.653Z,99.50
2017-08-08T20:59:25.681Z,99.50
2017-08-08T21:01:54.453Z,99.50
2017-08-08T21:04:22.954Z,99.50
2017-08-08T21:06:51.370Z,99.50
2017-08-08T21:09:19.808Z,99.50
2017-08-08T21:11:48.117Z,99.50
2017-08-08T21:14:16.396Z,99.50
2017-08-08T21:16:44.780Z,99.50
2017-08-08T21:19:13.629Z,99.50
2017-08-08T21:21:41.928Z,99.50
2017-08-08T21:24:12.009Z,99.50
2017-08-08T21:26:40.285Z,99.50
2017-08-08T21:29:09.080Z,99.50
2017-08-08T21:31:37.420Z,99.50
2017-08-08T21:34:06.123Z,99.50
2017-08-08T21:36:34.395Z,99.50
2017-08-08T21:39:03.609Z,99.50
2017-08-08T21:41:32.013Z,99.50
2017-08-08T21:44:00.251Z,99.50
2017-08-08T21:46:28.639Z,99.50
2017-08-08T21:48:56.920Z,99.50
2017-08-08T21:51:25.543Z,99.50
2017-08-08T21:53:54.231Z,99.50
2017-08-08T21:56:22.534Z,99.50
2017-08-08T21:58:51.314Z,99.50
2017-08-08T22:01:19.785Z,99.50
2017-08-08T22:03:48.115Z,99.50
2017-08-08T22:06:16.437Z,99.50
2017-08-08T22:08:44.695Z,99.50
2017-08-08T22:11:13.161Z,99.50
2017-08-08T22:13:41.488Z,99.50
2017-08-08T22:16:09.893Z,99.50
2017-08-08T22:18:38.143Z,99.50
2017-08-08T22:21:06.466Z,99.50
2017-08-08T22:23:34.817Z,99.50
2017-08-08T22:26:03.067Z,99.50
2017-08-08T22:28:31.313Z,99.50
2017-08-08T22:30:59.973Z,99.50
2017-08-08T22:33:28.211Z,99.50
2017-08-08T22:35:56.501Z,99.50
2017-08-08T22:38:24.852Z,99.50
2017-08-08T22:40:53.146Z,99.50
2017-08-08T22:43:21.784Z,99.50
2017-08-08T22:45:52.665Z,99.50
2017-08-08T22:48:21.000Z,99.50
2017-08-08T22:50:49.341Z,99.50
2017-08-08T22:53:17.591Z,99.50
2017-08-08T22:55:45.858Z,99.50
2017-08-08T22:58:14.283Z,99.50
2017-08-08T23:00:42.912Z,99.50
2017-08-08T23:03:11.412Z,99.50
2017-08-08T23:05:39.690Z,99.50
2017-08-08T23:08:07.981Z,99.50
2017-08-08T23:10:36.358Z,99.50
2017-08-08T23:13:04.676Z,99.50
2017-08-08T23:15:33.177Z,99.50
2017-08-08T23:18:01.505Z,99.50
2017-08-08T23:20:29.769Z,99.50
2017-08-08T23:22:58.044Z,99.50
2017-08-08T23:25:26.361Z,99.50
2017-08-08T23:27:54.944Z,99.50
2017-08-08T23:30:23.292Z,99.50
2017-08-08T23:32:51.571Z,99.50
2017-08-08T23:35:20.732Z,99.50
2017-08-08T23:37:49.115Z,99.50
2017-08-08T23:40:17.404Z,99.50
2017-08-08T23:42:45.715Z,99.50
2017-08-08T23:45:14.262Z,99.50
2017-08-08T23:47:42.696Z,99.50
2017-08-08T23:50:11.032Z,99.50
2017-08-08T23:52:39.327Z,99.50
2017-08-08T23:55:07.645Z,99.50
2017-08-08T23:57:36.020Z,99.50
